CheckWX is a tool to help pilots better visualize weather data.  It is not intended as a substitute for an official pre-flight weather briefing.

21:28:16 UTC

GMFM METAR
Bassatine Airport
Meknes, Morocco
Current

28 mins ago

GMFM 232100Z 29004KT CAVOK 21/11 Q1017 NOSIG
Observed
May-23 @ 21:00 UTC
Wind
  • 290° at 4 KTS
Visibility
10,000+ meters
Flight Rules
VFR
Cloud Levels
  • Clear skies
Temperature
21°C / 70°F
Dewpoint
11°C / 52°F
Humidity
53%
Altimeter
30.03" Hg
Pressure
1016.92 hPa
Previous

1 hour ago

GMFM 232000Z 29006KT CAVOK 23/12 Q1017 NOSIG
Observed
May-23 @ 20:00 UTC
Wind
  • 290° at 6 KTS
Visibility
10,000+ meters
Flight Rules
VFR
Cloud Levels
  • Clear skies
Temperature
23°C / 73°F
Dewpoint
12°C / 54°F
Humidity
50%
Altimeter
30.03" Hg
Pressure
1016.92 hPa
Previous

2 hours ago

GMFM 231900Z 29004KT CAVOK 27/14 Q1016 NOSIG
Observed
May-23 @ 19:00 UTC
Wind
  • 290° at 4 KTS
Visibility
10,000+ meters
Flight Rules
VFR
Cloud Levels
  • Clear skies
Temperature
27°C / 81°F
Dewpoint
14°C / 57°F
Heat Index
27°C / 81°F
Humidity
45%
Altimeter
30" Hg
Pressure
1015.92 hPa